BHL257 MYNN-MYGF
Flight info
| Callsign | BHL257 |
|---|---|
| Flight time | 0h 46m |
| Altitude | FL140 |
| Route | FREDY2 SYDNY BR65V ZFP |
| Aircraft | A748/M-SDFHY/C |
Departure
| Time | 2026-04-26 12:10 |
|---|---|
| Airport | Lynden Pindling International Airport (MYNN) |
Arrival
| Time | 2026-04-26 12:57 |
|---|---|
| Airport | Grand Bahama International Airport (MYGF) |
| Time | Latitude | Longitude | Altitude | Speed | Heading |
|---|---|---|---|---|---|
| 2026-04-26 12:00 | 25.04842 | -77.46656 | 25 ft | 0 kts | 314° |
| 2026-04-26 12:04 | 25.04838 | -77.46651 | 25 ft | 2 kts | 314° |
| 2026-04-26 12:05 | 25.04826 | -77.46638 | 25 ft | 3 kts | 314° |
| 2026-04-26 12:05 | 25.04814 | -77.46621 | 25 ft | 3 kts | 290° |
| 2026-04-26 12:05 | 25.04818 | -77.46601 | 25 ft | 2 kts | 222° |
| 2026-04-26 12:05 | 25.04818 | -77.46600 | 25 ft | 0 kts | 222° |
| 2026-04-26 12:07 | 25.04818 | -77.46601 | 25 ft | 1 kts | 223° |
| 2026-04-26 12:07 | 25.04744 | -77.46674 | 25 ft | 19 kts | 223° |
| 2026-04-26 12:07 | 25.04696 | -77.46774 | 25 ft | 14 kts | 317° |
| 2026-04-26 12:07 | 25.04800 | -77.46875 | 25 ft | 21 kts | 314° |
| 2026-04-26 12:08 | 25.04872 | -77.46956 | 25 ft | 9 kts | 315° |
| 2026-04-26 12:08 | 25.04935 | -77.47026 | 25 ft | 17 kts | 316° |
| 2026-04-26 12:08 | 25.05040 | -77.47144 | 25 ft | 25 kts | 316° |
| 2026-04-26 12:08 | 25.05153 | -77.47264 | 25 ft | 19 kts | 316° |
| 2026-04-26 12:09 | 25.05214 | -77.47358 | 25 ft | 12 kts | 282° |
| 2026-04-26 12:09 | 25.05216 | -77.47420 | 25 ft | 11 kts | 260° |
| 2026-04-26 12:09 | 25.05154 | -77.47509 | 25 ft | 15 kts | 176° |
| 2026-04-26 12:09 | 25.05106 | -77.47478 | 25 ft | 8 kts | 135° |
| 2026-04-26 12:10 | 25.04923 | -77.47277 | 25 ft | 67 kts | 134° |
| 2026-04-26 12:10 | 25.04481 | -77.46782 | 25 ft | 112 kts | 134° |
| 2026-04-26 12:10 | 25.03892 | -77.46136 | 292 ft | 119 kts | 136° |
| 2026-04-26 12:10 | 25.03286 | -77.45514 | 688 ft | 121 kts | 138° |
| 2026-04-26 12:11 | 25.02631 | -77.44896 | 976 ft | 128 kts | 140° |
| 2026-04-26 12:11 | 25.01940 | -77.44292 | 1353 ft | 127 kts | 142° |
| 2026-04-26 12:11 | 25.01195 | -77.43690 | 1630 ft | 139 kts | 147° |
| 2026-04-26 12:11 | 25.00241 | -77.43377 | 1921 ft | 145 kts | 175° |
| 2026-04-26 12:12 | 24.99274 | -77.43555 | 2361 ft | 142 kts | 204° |
| 2026-04-26 12:12 | 24.98437 | -77.44150 | 2741 ft | 146 kts | 218° |
| 2026-04-26 12:12 | 24.97686 | -77.44919 | 3114 ft | 149 kts | 221° |
| 2026-04-26 12:12 | 24.97179 | -77.45445 | 3355 ft | 152 kts | 223° |
| 2026-04-26 12:13 | 24.96181 | -77.46557 | 3905 ft | 151 kts | 225° |
| 2026-04-26 12:13 | 24.95462 | -77.47440 | 4175 ft | 163 kts | 230° |
| 2026-04-26 12:13 | 24.94704 | -77.48421 | 4399 ft | 173 kts | 231° |
| 2026-04-26 12:13 | 24.93832 | -77.49354 | 4638 ft | 179 kts | 216° |
| 2026-04-26 12:14 | 24.92766 | -77.50099 | 4887 ft | 184 kts | 211° |
| 2026-04-26 12:14 | 24.91671 | -77.50862 | 5119 ft | 188 kts | 213° |
| 2026-04-26 12:14 | 24.90595 | -77.51682 | 5395 ft | 188 kts | 216° |
| 2026-04-26 12:14 | 24.89552 | -77.52550 | 5695 ft | 188 kts | 219° |
| 2026-04-26 12:15 | 24.88535 | -77.53454 | 5993 ft | 188 kts | 220° |
| 2026-04-26 12:15 | 24.87565 | -77.54396 | 6286 ft | 187 kts | 228° |
| 2026-04-26 12:15 | 24.86969 | -77.55638 | 6667 ft | 179 kts | 253° |
| 2026-04-26 12:15 | 24.86705 | -77.56956 | 7069 ft | 174 kts | 263° |
| 2026-04-26 12:16 | 24.86600 | -77.58255 | 7464 ft | 169 kts | 269° |
| 2026-04-26 12:16 | 24.86594 | -77.59545 | 7828 ft | 168 kts | 273° |
| 2026-04-26 12:16 | 24.86658 | -77.60826 | 8179 ft | 167 kts | 276° |
| 2026-04-26 12:16 | 24.86776 | -77.62092 | 8530 ft | 166 kts | 278° |
| 2026-04-26 12:17 | 24.86938 | -77.63345 | 8880 ft | 165 kts | 281° |
| 2026-04-26 12:17 | 24.87128 | -77.64583 | 9228 ft | 164 kts | 282° |
| 2026-04-26 12:17 | 24.87334 | -77.65828 | 9491 ft | 169 kts | 283° |
| 2026-04-26 12:17 | 24.87560 | -77.67119 | 9729 ft | 174 kts | 283° |
| 2026-04-26 12:18 | 24.87807 | -77.68440 | 9963 ft | 179 kts | 284° |
| 2026-04-26 12:18 | 24.88070 | -77.69791 | 10196 ft | 182 kts | 285° |
| 2026-04-26 12:18 | 24.88352 | -77.71155 | 10418 ft | 185 kts | 285° |
| 2026-04-26 12:18 | 24.88648 | -77.72547 | 10635 ft | 188 kts | 286° |
| 2026-04-26 12:19 | 24.89238 | -77.73803 | 10880 ft | 185 kts | 312° |
| 2026-04-26 12:19 | 24.90219 | -77.74698 | 11149 ft | 184 kts | 326° |
| 2026-04-26 12:19 | 24.91327 | -77.75397 | 11403 ft | 185 kts | 333° |
| 2026-04-26 12:19 | 24.92515 | -77.75949 | 11659 ft | 185 kts | 339° |
| 2026-04-26 12:20 | 24.93742 | -77.76385 | 11910 ft | 186 kts | 342° |
| 2026-04-26 12:20 | 24.94993 | -77.76752 | 12160 ft | 186 kts | 345° |
| 2026-04-26 12:20 | 24.96250 | -77.77073 | 12411 ft | 187 kts | 346° |
| 2026-04-26 12:20 | 24.97522 | -77.77364 | 12662 ft | 187 kts | 347° |
| 2026-04-26 12:21 | 24.98797 | -77.77636 | 12912 ft | 187 kts | 347° |
| 2026-04-26 12:21 | 25.00083 | -77.77891 | 13165 ft | 187 kts | 348° |
| 2026-04-26 12:21 | 25.01364 | -77.78131 | 13414 ft | 188 kts | 348° |
| 2026-04-26 12:21 | 25.02654 | -77.78368 | 13665 ft | 188 kts | 348° |
| 2026-04-26 12:22 | 25.03951 | -77.78605 | 13866 ft | 191 kts | 348° |
| 2026-04-26 12:22 | 25.05267 | -77.78844 | 14014 ft | 196 kts | 348° |
| 2026-04-26 12:22 | 25.06651 | -77.79097 | 13980 ft | 207 kts | 348° |
| 2026-04-26 12:22 | 25.08091 | -77.79361 | 13962 ft | 213 kts | 348° |
| 2026-04-26 12:23 | 25.09568 | -77.79633 | 13957 ft | 217 kts | 348° |
| 2026-04-26 12:23 | 25.11061 | -77.79909 | 13955 ft | 219 kts | 348° |
| 2026-04-26 12:23 | 25.12565 | -77.80176 | 13953 ft | 221 kts | 349° |
| 2026-04-26 12:23 | 25.14089 | -77.80434 | 13950 ft | 222 kts | 349° |
| 2026-04-26 12:24 | 25.15617 | -77.80689 | 13941 ft | 223 kts | 349° |
| 2026-04-26 12:24 | 25.17152 | -77.80946 | 13939 ft | 223 kts | 349° |
| 2026-04-26 12:24 | 25.18682 | -77.81218 | 13938 ft | 224 kts | 348° |
| 2026-04-26 12:25 | 25.21753 | -77.81788 | 13944 ft | 224 kts | 348° |
| 2026-04-26 12:25 | 25.23284 | -77.82075 | 13938 ft | 224 kts | 348° |
| 2026-04-26 12:25 | 25.24825 | -77.82362 | 13930 ft | 225 kts | 348° |
| 2026-04-26 12:25 | 25.26371 | -77.82631 | 13928 ft | 225 kts | 349° |
| 2026-04-26 12:26 | 25.27916 | -77.82902 | 13926 ft | 225 kts | 348° |
| 2026-04-26 12:26 | 25.29456 | -77.83181 | 13923 ft | 225 kts | 349° |
| 2026-04-26 12:26 | 25.31003 | -77.83453 | 13919 ft | 225 kts | 349° |
| 2026-04-26 12:26 | 25.32553 | -77.83732 | 13899 ft | 226 kts | 349° |
| 2026-04-26 12:27 | 25.34104 | -77.84007 | 13888 ft | 226 kts | 348° |
| 2026-04-26 12:27 | 25.35658 | -77.84285 | 13885 ft | 226 kts | 349° |
| 2026-04-26 12:27 | 25.37204 | -77.84561 | 13885 ft | 226 kts | 348° |
| 2026-04-26 12:27 | 25.38753 | -77.84835 | 13884 ft | 226 kts | 349° |
| 2026-04-26 12:28 | 25.40300 | -77.85115 | 13883 ft | 225 kts | 349° |
| 2026-04-26 12:28 | 25.41845 | -77.85387 | 13880 ft | 225 kts | 349° |
| 2026-04-26 12:28 | 25.43391 | -77.85667 | 13881 ft | 225 kts | 349° |
| 2026-04-26 12:28 | 25.44940 | -77.85939 | 13881 ft | 225 kts | 349° |
| 2026-04-26 12:29 | 25.46486 | -77.86219 | 13881 ft | 225 kts | 349° |
| 2026-04-26 12:29 | 25.48032 | -77.86492 | 13882 ft | 225 kts | 348° |
| 2026-04-26 12:29 | 25.51115 | -77.87044 | 13887 ft | 225 kts | 348° |
| 2026-04-26 12:30 | 25.52662 | -77.87320 | 13885 ft | 225 kts | 348° |
| 2026-04-26 12:30 | 25.54196 | -77.87638 | 13885 ft | 225 kts | 342° |
| 2026-04-26 12:30 | 25.55673 | -77.88195 | 13889 ft | 224 kts | 335° |
| 2026-04-26 12:31 | 25.58396 | -77.89867 | 13886 ft | 224 kts | 325° |
| 2026-04-26 12:31 | 25.59692 | -77.90834 | 13883 ft | 225 kts | 323° |
| 2026-04-26 12:31 | 25.60970 | -77.91843 | 13886 ft | 227 kts | 322° |
| 2026-04-26 12:31 | 25.62249 | -77.92873 | 13885 ft | 228 kts | 322° |
| 2026-04-26 12:32 | 25.63531 | -77.93911 | 13886 ft | 229 kts | 322° |
| 2026-04-26 12:32 | 25.64817 | -77.94951 | 13885 ft | 229 kts | 322° |
| 2026-04-26 12:32 | 25.67392 | -77.97038 | 13883 ft | 230 kts | 322° |
| 2026-04-26 12:33 | 25.68687 | -77.98088 | 13883 ft | 231 kts | 322° |
| 2026-04-26 12:33 | 25.69978 | -77.99143 | 13882 ft | 231 kts | 322° |
| 2026-04-26 12:33 | 25.71264 | -78.00194 | 13882 ft | 231 kts | 322° |
| 2026-04-26 12:33 | 25.72558 | -78.01250 | 13883 ft | 231 kts | 322° |
| 2026-04-26 12:34 | 25.73847 | -78.02305 | 13884 ft | 231 kts | 322° |
| 2026-04-26 12:34 | 25.75140 | -78.03362 | 13885 ft | 231 kts | 322° |
| 2026-04-26 12:34 | 25.76427 | -78.04416 | 13881 ft | 231 kts | 322° |
| 2026-04-26 12:34 | 25.77727 | -78.05480 | 13884 ft | 231 kts | 322° |
| 2026-04-26 12:35 | 25.79016 | -78.06546 | 13886 ft | 231 kts | 322° |
| 2026-04-26 12:35 | 25.80311 | -78.07603 | 13886 ft | 231 kts | 322° |
| 2026-04-26 12:35 | 25.81605 | -78.08653 | 13887 ft | 231 kts | 322° |
| 2026-04-26 12:35 | 25.82898 | -78.09716 | 13886 ft | 231 kts | 322° |
| 2026-04-26 12:36 | 25.84192 | -78.10774 | 13884 ft | 231 kts | 322° |
| 2026-04-26 12:36 | 25.85486 | -78.11837 | 13877 ft | 232 kts | 322° |
| 2026-04-26 12:36 | 25.86778 | -78.12893 | 13875 ft | 232 kts | 322° |
| 2026-04-26 12:36 | 25.88073 | -78.13959 | 13876 ft | 232 kts | 322° |
| 2026-04-26 12:37 | 25.89370 | -78.15018 | 13876 ft | 231 kts | 322° |
| 2026-04-26 12:37 | 25.90662 | -78.16084 | 13876 ft | 231 kts | 322° |
| 2026-04-26 12:37 | 25.91955 | -78.17140 | 13878 ft | 231 kts | 322° |
| 2026-04-26 12:37 | 25.93244 | -78.18204 | 13878 ft | 231 kts | 322° |
| 2026-04-26 12:38 | 25.94543 | -78.19265 | 13879 ft | 231 kts | 322° |
| 2026-04-26 12:38 | 25.95834 | -78.20331 | 13879 ft | 231 kts | 322° |
| 2026-04-26 12:38 | 25.97124 | -78.21386 | 13879 ft | 231 kts | 322° |
| 2026-04-26 12:38 | 25.98418 | -78.22455 | 13880 ft | 231 kts | 322° |
| 2026-04-26 12:39 | 25.99708 | -78.23510 | 13880 ft | 231 kts | 322° |
| 2026-04-26 12:39 | 26.00999 | -78.24578 | 13880 ft | 231 kts | 322° |
| 2026-04-26 12:39 | 26.02290 | -78.25633 | 13873 ft | 228 kts | 322° |
| 2026-04-26 12:39 | 26.03551 | -78.26655 | 13863 ft | 219 kts | 322° |
| 2026-04-26 12:40 | 26.04762 | -78.27632 | 13858 ft | 210 kts | 322° |
| 2026-04-26 12:40 | 26.05926 | -78.28569 | 13813 ft | 205 kts | 322° |
| 2026-04-26 12:40 | 26.07087 | -78.29504 | 13603 ft | 208 kts | 322° |
| 2026-04-26 12:40 | 26.08266 | -78.30453 | 13377 ft | 210 kts | 322° |
| 2026-04-26 12:41 | 26.09449 | -78.31405 | 13091 ft | 212 kts | 322° |
| 2026-04-26 12:41 | 26.10652 | -78.32377 | 12790 ft | 214 kts | 322° |
| 2026-04-26 12:41 | 26.11859 | -78.33356 | 12489 ft | 216 kts | 322° |
| 2026-04-26 12:41 | 26.13078 | -78.34344 | 12191 ft | 218 kts | 322° |
| 2026-04-26 12:42 | 26.14307 | -78.35335 | 11890 ft | 219 kts | 322° |
| 2026-04-26 12:42 | 26.15541 | -78.36329 | 11590 ft | 219 kts | 322° |
| 2026-04-26 12:42 | 26.16774 | -78.37320 | 11291 ft | 219 kts | 322° |
| 2026-04-26 12:42 | 26.18010 | -78.38313 | 10990 ft | 219 kts | 322° |
| 2026-04-26 12:43 | 26.19248 | -78.39308 | 10688 ft | 219 kts | 322° |
| 2026-04-26 12:43 | 26.20479 | -78.40296 | 10388 ft | 219 kts | 322° |
| 2026-04-26 12:43 | 26.21714 | -78.41286 | 10087 ft | 218 kts | 322° |
| 2026-04-26 12:43 | 26.22949 | -78.42278 | 9665 ft | 220 kts | 322° |
| 2026-04-26 12:44 | 26.24191 | -78.43279 | 9182 ft | 222 kts | 322° |
| 2026-04-26 12:44 | 26.25440 | -78.44295 | 8725 ft | 222 kts | 322° |
| 2026-04-26 12:44 | 26.26663 | -78.45342 | 8274 ft | 222 kts | 321° |
| 2026-04-26 12:44 | 26.27874 | -78.46405 | 7823 ft | 221 kts | 321° |
| 2026-04-26 12:45 | 26.29077 | -78.47464 | 7374 ft | 221 kts | 321° |
| 2026-04-26 12:45 | 26.30283 | -78.48527 | 6922 ft | 221 kts | 321° |
| 2026-04-26 12:45 | 26.31486 | -78.49590 | 6472 ft | 221 kts | 321° |
| 2026-04-26 12:45 | 26.32690 | -78.50655 | 6020 ft | 220 kts | 321° |
| 2026-04-26 12:46 | 26.33887 | -78.51717 | 5569 ft | 220 kts | 321° |
| 2026-04-26 12:46 | 26.35081 | -78.52776 | 5120 ft | 220 kts | 321° |
| 2026-04-26 12:46 | 26.36274 | -78.53838 | 4672 ft | 219 kts | 321° |
| 2026-04-26 12:46 | 26.37455 | -78.54889 | 4318 ft | 215 kts | 320° |
| 2026-04-26 12:47 | 26.38608 | -78.55910 | 3980 ft | 211 kts | 320° |
| 2026-04-26 12:47 | 26.39747 | -78.56909 | 3702 ft | 205 kts | 320° |
| 2026-04-26 12:47 | 26.40857 | -78.57872 | 3430 ft | 201 kts | 321° |
| 2026-04-26 12:47 | 26.41947 | -78.58814 | 3225 ft | 195 kts | 320° |
| 2026-04-26 12:48 | 26.43018 | -78.59709 | 3016 ft | 191 kts | 325° |
| 2026-04-26 12:48 | 26.44275 | -78.60123 | 2801 ft | 190 kts | 357° |
| 2026-04-26 12:48 | 26.45539 | -78.59765 | 2623 ft | 188 kts | 25° |
| 2026-04-26 12:48 | 26.46668 | -78.59058 | 2437 ft | 185 kts | 31° |
| 2026-04-26 12:49 | 26.47755 | -78.58303 | 2232 ft | 183 kts | 32° |
| 2026-04-26 12:49 | 26.48821 | -78.57555 | 2057 ft | 180 kts | 32° |
| 2026-04-26 12:49 | 26.49863 | -78.56823 | 1974 ft | 173 kts | 32° |
| 2026-04-26 12:49 | 26.50855 | -78.56127 | 1984 ft | 166 kts | 33° |
| 2026-04-26 12:50 | 26.51814 | -78.55454 | 1986 ft | 161 kts | 32° |
| 2026-04-26 12:50 | 26.52752 | -78.54795 | 1987 ft | 158 kts | 33° |
| 2026-04-26 12:50 | 26.53672 | -78.54151 | 1989 ft | 155 kts | 32° |
| 2026-04-26 12:50 | 26.54621 | -78.53556 | 1985 ft | 159 kts | 20° |
| 2026-04-26 12:51 | 26.55713 | -78.53361 | 2010 ft | 161 kts | 4° |
| 2026-04-26 12:51 | 26.56838 | -78.53323 | 2001 ft | 164 kts | 1° |
| 2026-04-26 12:51 | 26.57984 | -78.53306 | 1998 ft | 165 kts | 0° |
| 2026-04-26 12:51 | 26.59112 | -78.53367 | 1984 ft | 167 kts | 348° |
| 2026-04-26 12:52 | 26.60144 | -78.53980 | 2014 ft | 164 kts | 323° |
| 2026-04-26 12:52 | 26.61032 | -78.54787 | 2001 ft | 166 kts | 319° |
| 2026-04-26 12:52 | 26.61911 | -78.55627 | 1995 ft | 167 kts | 319° |
| 2026-04-26 12:52 | 26.62677 | -78.56588 | 1973 ft | 166 kts | 296° |
| 2026-04-26 12:53 | 26.62832 | -78.57809 | 1987 ft | 159 kts | 259° |
| 2026-04-26 12:53 | 26.62308 | -78.58842 | 1991 ft | 152 kts | 221° |
| 2026-04-26 12:53 | 26.61479 | -78.59509 | 1952 ft | 148 kts | 215° |
| 2026-04-26 12:53 | 26.60705 | -78.60239 | 1802 ft | 137 kts | 221° |
| 2026-04-26 12:54 | 26.60105 | -78.60990 | 1675 ft | 125 kts | 233° |
| 2026-04-26 12:54 | 26.59664 | -78.61805 | 1504 ft | 122 kts | 239° |
| 2026-04-26 12:54 | 26.59268 | -78.62647 | 1305 ft | 123 kts | 241° |
| 2026-04-26 12:54 | 26.58877 | -78.63495 | 1107 ft | 123 kts | 241° |
| 2026-04-26 12:55 | 26.58489 | -78.64342 | 907 ft | 123 kts | 240° |
| 2026-04-26 12:55 | 26.58064 | -78.65163 | 738 ft | 120 kts | 238° |
| 2026-04-26 12:55 | 26.57651 | -78.65962 | 589 ft | 120 kts | 240° |
| 2026-04-26 12:55 | 26.57246 | -78.66785 | 413 ft | 123 kts | 240° |
| 2026-04-26 12:56 | 26.56973 | -78.67342 | 283 ft | 123 kts | 240° |
| 2026-04-26 12:56 | 26.56561 | -78.68176 | 83 ft | 122 kts | 239° |
| 2026-04-26 12:56 | 26.56175 | -78.68953 | 16 ft | 102 kts | 239° |
| 2026-04-26 12:56 | 26.55877 | -78.69551 | 16 ft | 76 kts | 240° |
| 2026-04-26 12:57 | 26.55655 | -78.69981 | 16 ft | 52 kts | 242° |
| 2026-04-26 12:57 | 26.55508 | -78.70279 | 16 ft | 37 kts | 238° |
| 2026-04-26 12:57 | 26.55405 | -78.70484 | 16 ft | 24 kts | 240° |
| 2026-04-26 12:58 | 26.55270 | -78.70767 | 16 ft | 31 kts | 242° |
| 2026-04-26 12:58 | 26.55178 | -78.70947 | 16 ft | 20 kts | 237° |
| 2026-04-26 12:58 | 26.55105 | -78.70994 | 16 ft | 7 kts | 181° |
| 2026-04-26 12:58 | 26.55067 | -78.70997 | 16 ft | 4 kts | 186° |
| 2026-04-26 12:59 | 26.54983 | -78.70993 | 16 ft | 12 kts | 142° |
| 2026-04-26 12:59 | 26.54960 | -78.70883 | 16 ft | 9 kts | 149° |
| 2026-04-26 12:59 | 26.54890 | -78.70833 | 16 ft | 20 kts | 96° |
| 2026-04-26 12:59 | 26.54875 | -78.70621 | 16 ft | 27 kts | 98° |
| 2026-04-26 13:00 | 26.54874 | -78.70468 | 16 ft | 13 kts | 92° |
| 2026-04-26 13:00 | 26.54846 | -78.70433 | 16 ft | 10 kts | 169° |
| 2026-04-26 13:00 | 26.54802 | -78.70403 | 16 ft | 0 kts | 67° |